createdAt,value
2022-08-30T00:02:43.834Z,101913.88
2022-08-30T00:07:47.177Z,101915.56
2022-08-30T00:12:52.075Z,101920.19
2022-08-30T00:17:58.208Z,101924.63
2022-08-30T00:23:04.259Z,101921.06
2022-08-30T00:28:09.819Z,101923.66
2022-08-30T00:33:14.004Z,101930.81
2022-08-30T00:38:17.030Z,101936.19
2022-08-30T00:43:29.089Z,101941.66
2022-08-30T00:48:32.337Z,101935.56
2022-08-30T00:53:38.421Z,101944.38
2022-08-30T00:58:48.132Z,101936.19
2022-08-30T01:03:51.287Z,101940.53
2022-08-30T01:08:54.128Z,101939.63
2022-08-30T01:13:59.037Z,101935.16
2022-08-30T01:19:02.580Z,101942.16
2022-08-30T01:24:10.109Z,101943.13
2022-08-30T01:29:18.567Z,101951.03
2022-08-30T01:34:21.617Z,101950.09
2022-08-30T01:39:26.026Z,101950.03
2022-08-30T01:44:28.844Z,101947.34
2022-08-30T01:49:31.782Z,101950.97
2022-08-30T01:54:39.581Z,101950.91
2022-08-30T01:59:47.531Z,101948.06
2022-08-30T02:04:51.759Z,101959.53
2022-08-30T02:09:56.834Z,101950.72
2022-08-30T02:14:59.651Z,101956.81
2022-08-30T02:20:02.764Z,101960.38
2022-08-30T02:25:11.219Z,101963.03
2022-08-30T02:30:23.957Z,101969.28
2022-08-30T02:35:27.388Z,101954.16
2022-08-30T02:40:31.991Z,101962.91
2022-08-30T02:45:35.106Z,101959.28
2022-08-30T02:50:41.503Z,101956.41
2022-08-30T02:55:46.600Z,101956.28
2022-08-30T03:00:49.516Z,101958.88
2022-08-30T03:05:55.369Z,101955.34
2022-08-30T03:11:00.129Z,101955.28
2022-08-30T03:16:03.310Z,101956.06
2022-08-30T03:21:11.614Z,101955.28
2022-08-30T03:26:15.978Z,101961.69
2022-08-30T03:31:18.813Z,101964.91
2022-08-30T03:36:22.116Z,101966.44
2022-08-30T03:41:26.286Z,101964.59
2022-08-30T03:46:31.831Z,101966.44
2022-08-30T03:51:36.574Z,101970.09
2022-08-30T03:56:41.004Z,101973.66
2022-08-30T04:01:45.733Z,101974.41
2022-08-30T04:06:48.782Z,101969.91
2022-08-30T04:11:52.931Z,101979.09
2022-08-30T04:16:55.731Z,101980.91
2022-08-30T04:21:58.574Z,101983.50
2022-08-30T04:27:02.949Z,101989.53
2022-08-30T04:32:06.030Z,101993.72
2022-08-30T04:37:09.902Z,101994.72
2022-08-30T04:42:14.268Z,101994.00
2022-08-30T04:47:18.301Z,101990.63
2022-08-30T04:52:21.354Z,102001.50
2022-08-30T04:57:26.560Z,102000.63
2022-08-30T05:02:29.462Z,102013.59
2022-08-30T05:07:33.432Z,102014.56
2022-08-30T05:12:37.619Z,102024.44
2022-08-30T05:17:41.228Z,102022.97
2022-08-30T05:22:49.951Z,102028.22
2022-08-30T05:27:58.195Z,102024.78
2022-08-30T05:33:00.991Z,102025.75
2022-08-30T05:38:03.750Z,102019.59
2022-08-30T05:43:08.178Z,102030.19
2022-08-30T05:48:13.113Z,102034.56
2022-08-30T05:53:15.967Z,102028.34
2022-08-30T05:58:20.108Z,102033.66
2022-08-30T06:03:23.221Z,102025.56
2022-08-30T06:08:26.081Z,102041.78
2022-08-30T06:13:30.242Z,102037.59
2022-08-30T06:18:33.065Z,102034.19
2022-08-30T06:23:36.257Z,102037.09
2022-08-30T06:28:40.536Z,102040.84
2022-08-30T06:33:44.726Z,102038.59
2022-08-30T06:38:52.044Z,102038.94
2022-08-30T06:44:03.893Z,102052.44
2022-08-30T06:49:08.564Z,102045.41
2022-08-30T06:54:13.093Z,102047.22
2022-08-30T06:59:17.901Z,102051.69
2022-08-30T07:04:20.708Z,102042.44
2022-08-30T07:09:23.609Z,102035.28
2022-08-30T07:14:27.786Z,102043.19
2022-08-30T07:19:30.605Z,102039.88
2022-08-30T07:24:33.401Z,102051.31
2022-08-30T07:29:37.583Z,102063.38
2022-08-30T07:34:40.392Z,102077.16
2022-08-30T07:39:47.572Z,102085.69
2022-08-30T07:44:56.515Z,102081.75
2022-08-30T07:50:00.957Z,102094.63
2022-08-30T07:55:05.289Z,102097.97
2022-08-30T08:00:11.338Z,102099.47
2022-08-30T08:05:17.639Z,102097.81
2022-08-30T08:10:21.787Z,102097.00
2022-08-30T08:15:26.484Z,102093.72
2022-08-30T08:20:29.357Z,102089.94
2022-08-30T08:25:32.427Z,102096.06
2022-08-30T08:30:38.848Z,102100.00
2022-08-30T08:35:41.679Z,102107.22
2022-08-30T08:40:55.481Z,102104.66
2022-08-30T08:46:05.175Z,102095.31
2022-08-30T08:51:28.852Z,102107.31
2022-08-30T08:56:32.209Z,102094.28
2022-08-30T09:01:38.500Z,102110.47
2022-08-30T09:06:53.399Z,102106.06
2022-08-30T09:11:56.440Z,102103.63
2022-08-30T09:17:03.525Z,102096.75
2022-08-30T09:22:15.147Z,102100.53
2022-08-30T09:27:22.124Z,102099.00
2022-08-30T09:32:31.922Z,102099.00
2022-08-30T09:37:38.956Z,102093.91
2022-08-30T09:42:42.627Z,102110.97
2022-08-30T09:47:46.873Z,102103.34
2022-08-30T09:53:15.815Z,102102.47
2022-08-30T09:58:42.687Z,102097.53
2022-08-30T10:03:55.855Z,102104.59
2022-08-30T10:09:07.674Z,102102.75
2022-08-30T10:14:40.157Z,102100.06
2022-08-30T10:19:59.204Z,102095.22
2022-08-30T10:25:06.515Z,102102.69
2022-08-30T10:30:14.332Z,102100.97
2022-08-30T10:35:21.771Z,102098.88
2022-08-30T10:40:51.070Z,102107.53
2022-08-30T10:45:59.024Z,102110.75
2022-08-30T10:51:10.819Z,102098.41
2022-08-30T10:56:20.517Z,102105.88
2022-08-30T11:01:37.767Z,102107.09
2022-08-30T11:06:59.302Z,102111.69
2022-08-30T11:12:22.646Z,102108.06
2022-08-30T11:17:32.238Z,102103.63
2022-08-30T11:22:39.370Z,102099.25
2022-08-30T11:27:49.407Z,102102.31
2022-08-30T11:33:03.316Z,102093.47
2022-08-30T11:38:21.851Z,102091.56
2022-08-30T11:43:51.580Z,102089.31
2022-08-30T11:49:01.976Z,102087.78
2022-08-30T11:54:17.262Z,102091.53
2022-08-30T11:59:30.860Z,102087.16
2022-08-30T12:04:45.394Z,102082.97
2022-08-30T12:10:06.262Z,102086.97
2022-08-30T12:15:48.020Z,102087.78
2022-08-30T12:20:51.001Z,102090.53
2022-08-30T12:26:11.123Z,102084.13
2022-08-30T12:31:17.562Z,102093.88
2022-08-30T12:36:34.926Z,102071.94
2022-08-30T12:41:43.868Z,102082.88
2022-08-30T12:46:49.417Z,102067.28
2022-08-30T12:51:52.299Z,102073.78
2022-08-30T12:57:18.963Z,102074.50
2022-08-30T13:02:26.890Z,102065.53
2022-08-30T13:07:33.402Z,102059.28
2022-08-30T13:12:38.436Z,102062.41
2022-08-30T13:17:41.260Z,102061.97
2022-08-30T13:23:03.182Z,102058.91
2022-08-30T13:28:08.487Z,102064.34
2022-08-30T13:33:11.646Z,102053.34
2022-08-30T13:43:18.520Z,102060.09
2022-08-30T13:48:24.876Z,102058.75
2022-08-30T13:58:52.228Z,102056.38
2022-08-30T14:09:19.048Z,102040.84
2022-08-30T14:14:41.420Z,102048.00
2022-08-30T14:19:46.231Z,102043.22
2022-08-30T14:24:54.147Z,102047.59
2022-08-30T14:29:59.923Z,102049.41
2022-08-30T14:35:02.753Z,102056.44
2022-08-30T14:40:07.734Z,102048.56
2022-08-30T14:45:13.181Z,102048.97
2022-08-30T14:50:16.391Z,102049.22
2022-08-30T14:55:19.480Z,102040.47
2022-08-30T15:00:24.055Z,102035.97
2022-08-30T15:05:28.618Z,102039.22
2022-08-30T15:10:31.482Z,102036.38
2022-08-30T15:15:36.632Z,102034.47
2022-08-30T15:20:47.435Z,102026.09
2022-08-30T15:25:50.259Z,102026.88
2022-08-30T15:30:55.506Z,102035.88
2022-08-30T15:36:01.486Z,102030.28
2022-08-30T15:41:09.180Z,102029.28
2022-08-30T15:46:22.907Z,102029.16
2022-08-30T15:51:26.347Z,102029.47
2022-08-30T15:56:30.685Z,102034.91
2022-08-30T16:01:41.506Z,102022.44
2022-08-30T16:06:46.532Z,102030.22
2022-08-30T16:11:49.555Z,102031.75
2022-08-30T16:16:54.329Z,102034.91
2022-08-30T16:21:57.575Z,102030.16
2022-08-30T16:27:00.441Z,102033.38
2022-08-30T16:32:05.030Z,102023.13
2022-08-30T16:37:07.846Z,102029.47
2022-08-30T16:42:11.325Z,102029.91
2022-08-30T16:47:15.572Z,102025.94
2022-08-30T16:52:18.586Z,102027.19
2022-08-30T16:57:22.225Z,102029.44
2022-08-30T17:02:26.574Z,102031.91
2022-08-30T17:07:30.659Z,102032.47
2022-08-30T17:12:33.614Z,102026.78
2022-08-30T17:17:38.128Z,102036.16
2022-08-30T17:22:46.175Z,102038.31
2022-08-30T17:27:49.230Z,102044.28
2022-08-30T17:32:54.573Z,102049.94
2022-08-30T17:37:58.368Z,102053.03
2022-08-30T17:43:01.365Z,102063.22
2022-08-30T17:48:07.049Z,102070.75
2022-08-30T17:53:09.884Z,102066.72
2022-08-30T17:58:12.884Z,102069.91
2022-08-30T18:03:17.445Z,102073.16
2022-08-30T18:08:20.306Z,102075.44
2022-08-30T18:13:23.531Z,102078.69
2022-08-30T18:18:28.547Z,102080.19
2022-08-30T18:23:31.952Z,102084.94
2022-08-30T18:28:35.347Z,102097.91
2022-08-30T18:33:39.643Z,102104.56
2022-08-30T18:38:42.862Z,102112.97
2022-08-30T18:43:46.085Z,102106.28
2022-08-30T18:48:51.214Z,102122.66
2022-08-30T18:53:56.154Z,102120.50
2022-08-30T18:58:59.032Z,102132.56
2022-08-30T19:04:04.816Z,102134.66
2022-08-30T19:09:08.970Z,102131.13
2022-08-30T19:14:12.378Z,102139.19
2022-08-30T19:19:18.772Z,102142.13
2022-08-30T19:24:21.735Z,102136.28
2022-08-30T19:29:24.578Z,102144.69
2022-08-30T19:34:30.516Z,102139.00
2022-08-30T19:39:33.368Z,102146.63
2022-08-30T19:44:36.698Z,102140.78
2022-08-30T19:49:41.094Z,102142.94
2022-08-30T19:54:43.933Z,102135.25
2022-08-30T19:59:46.784Z,102140.41
2022-08-30T20:04:51.487Z,102140.13
2022-08-30T20:09:54.446Z,102137.41
2022-08-30T20:14:57.270Z,102148.09
2022-08-30T20:20:04.408Z,102147.94
2022-08-30T20:25:10.824Z,102145.69
2022-08-30T20:30:15.278Z,102149.81
2022-08-30T20:35:19.892Z,102144.28
2022-08-30T20:40:22.962Z,102147.19
2022-08-30T20:45:25.830Z,102152.69
2022-08-30T20:50:35.211Z,102152.44
2022-08-30T20:55:41.565Z,102152.19
2022-08-30T21:00:45.662Z,102145.84
2022-08-30T21:05:51.148Z,102138.53
2022-08-30T21:10:54.565Z,102143.22
2022-08-30T21:16:03.633Z,102146.34
2022-08-30T21:21:12.610Z,102149.81
2022-08-30T21:26:18.078Z,102159.34
2022-08-30T21:31:22.629Z,102154.69
2022-08-30T21:36:46.549Z,102160.63
2022-08-30T21:41:51.169Z,102152.34
2022-08-30T21:46:56.200Z,102160.03
2022-08-30T21:52:00.512Z,102158.78
2022-08-30T21:57:05.247Z,102155.72
2022-08-30T22:02:09.148Z,102159.72
2022-08-30T22:07:13.468Z,102157.34
2022-08-30T22:12:16.385Z,102158.63
2022-08-30T22:17:19.281Z,102159.09
2022-08-30T22:22:23.409Z,102149.41
2022-08-30T22:27:26.232Z,102153.88
2022-08-30T22:32:29.083Z,102155.94
2022-08-30T22:37:34.022Z,102158.84
2022-08-30T22:42:37.213Z,102155.47
2022-08-30T22:47:40.065Z,102161.72
2022-08-30T22:52:44.324Z,102161.00
2022-08-30T22:57:47.126Z,102174.53
2022-08-30T23:02:52.597Z,102179.97
2022-08-30T23:07:56.919Z,102180.28
2022-08-30T23:13:00.534Z,102186.88
2022-08-30T23:18:03.479Z,102188.13
2022-08-30T23:23:06.530Z,102189.25
2022-08-30T23:28:26.639Z,102186.22
2022-08-30T23:33:47.217Z,102203.47
2022-08-30T23:39:08.537Z,102199.28
2022-08-30T23:44:29.009Z,102198.69
2022-08-30T23:49:49.321Z,102209.94
2022-08-30T23:55:11.036Z,102199.78
